sensor_id;sensor_type;location;lat;lon;timestamp;P1;durP1;ratioP1;P2;durP2;ratioP2
3867;SDS011;1949;48.152;11.528;2022-10-31T00:00:48;14.87;;;5.43;;
3867;SDS011;1949;48.152;11.528;2022-10-31T00:03:14;15.73;;;5.70;;
3867;SDS011;1949;48.152;11.528;2022-10-31T00:05:41;25.73;;;6.57;;
3867;SDS011;1949;48.152;11.528;2022-10-31T00:08:08;10.47;;;4.70;;
3867;SDS011;1949;48.152;11.528;2022-10-31T00:10:36;15.97;;;7.20;;
3867;SDS011;1949;48.152;11.528;2022-10-31T00:13:03;14.47;;;5.97;;
3867;SDS011;1949;48.152;11.528;2022-10-31T00:15:29;21.80;;;4.77;;
3867;SDS011;1949;48.152;11.528;2022-10-31T00:17:54;10.53;;;4.60;;
3867;SDS011;1949;48.152;11.528;2022-10-31T00:20:20;21.40;;;4.90;;
3867;SDS011;1949;48.152;11.528;2022-10-31T00:22:45;22.83;;;5.70;;
3867;SDS011;1949;48.152;11.528;2022-10-31T00:25:11;16.60;;;5.27;;
3867;SDS011;1949;48.152;11.528;2022-10-31T00:27:37;12.77;;;4.60;;
3867;SDS011;1949;48.152;11.528;2022-10-31T00:30:03;14.90;;;5.50;;
3867;SDS011;1949;48.152;11.528;2022-10-31T00:32:29;15.13;;;4.73;;
3867;SDS011;1949;48.152;11.528;2022-10-31T00:34:55;12.77;;;4.60;;
3867;SDS011;1949;48.152;11.528;2022-10-31T00:37:21;14.70;;;4.57;;
3867;SDS011;1949;48.152;11.528;2022-10-31T00:39:47;8.30;;;4.20;;
3867;SDS011;1949;48.152;11.528;2022-10-31T00:42:14;12.23;;;5.20;;
3867;SDS011;1949;48.152;11.528;2022-10-31T00:44:40;17.13;;;4.60;;
3867;SDS011;1949;48.152;11.528;2022-10-31T00:47:06;20.70;;;4.00;;
3867;SDS011;1949;48.152;11.528;2022-10-31T00:49:32;11.50;;;4.60;;
3867;SDS011;1949;48.152;11.528;2022-10-31T00:51:57;12.63;;;3.93;;
3867;SDS011;1949;48.152;11.528;2022-10-31T00:54:23;8.43;;;3.60;;
3867;SDS011;1949;48.152;11.528;2022-10-31T00:56:49;15.50;;;5.03;;
3867;SDS011;1949;48.152;11.528;2022-10-31T00:59:15;10.40;;;4.37;;
3867;SDS011;1949;48.152;11.528;2022-10-31T01:01:41;20.43;;;5.20;;
3867;SDS011;1949;48.152;11.528;2022-10-31T01:04:06;10.63;;;3.90;;
3867;SDS011;1949;48.152;11.528;2022-10-31T01:06:32;8.70;;;3.83;;
3867;SDS011;1949;48.152;11.528;2022-10-31T01:08:58;14.23;;;5.37;;
3867;SDS011;1949;48.152;11.528;2022-10-31T01:11:24;7.23;;;3.87;;
3867;SDS011;1949;48.152;11.528;2022-10-31T01:13:50;13.93;;;4.50;;
3867;SDS011;1949;48.152;11.528;2022-10-31T01:16:18;9.40;;;4.93;;
3867;SDS011;1949;48.152;11.528;2022-10-31T01:18:46;16.37;;;4.67;;
3867;SDS011;1949;48.152;11.528;2022-10-31T01:21:19;9.70;;;4.10;;
3867;SDS011;1949;48.152;11.528;2022-10-31T01:23:47;10.40;;;4.43;;
3867;SDS011;1949;48.152;11.528;2022-10-31T01:26:20;14.93;;;4.17;;
3867;SDS011;1949;48.152;11.528;2022-10-31T01:28:52;14.23;;;3.53;;
3867;SDS011;1949;48.152;11.528;2022-10-31T01:31:20;10.27;;;4.63;;
3867;SDS011;1949;48.152;11.528;2022-10-31T01:33:47;14.00;;;5.70;;
3867;SDS011;1949;48.152;11.528;2022-10-31T01:36:21;9.60;;;3.50;;
3867;SDS011;1949;48.152;11.528;2022-10-31T01:38:49;17.57;;;4.30;;
3867;SDS011;1949;48.152;11.528;2022-10-31T01:41:18;16.93;;;3.90;;
3867;SDS011;1949;48.152;11.528;2022-10-31T01:52:20;6.90;;;3.33;;
3867;SDS011;1949;48.152;11.528;2022-10-31T01:54:48;14.20;;;3.60;;
3867;SDS011;1949;48.152;11.528;2022-10-31T01:57:21;13.93;;;3.80;;
3867;SDS011;1949;48.152;11.528;2022-10-31T01:59:48;11.30;;;3.27;;
3867;SDS011;1949;48.152;11.528;2022-10-31T02:02:16;9.43;;;3.67;;
3867;SDS011;1949;48.152;11.528;2022-10-31T02:04:44;16.13;;;3.47;;
3867;SDS011;1949;48.152;11.528;2022-10-31T02:07:15;8.23;;;3.73;;
3867;SDS011;1949;48.152;11.528;2022-10-31T02:09:44;11.60;;;4.30;;
3867;SDS011;1949;48.152;11.528;2022-10-31T02:12:12;11.00;;;5.33;;
3867;SDS011;1949;48.152;11.528;2022-10-31T02:14:39;8.00;;;3.60;;
3867;SDS011;1949;48.152;11.528;2022-10-31T02:17:06;13.73;;;3.93;;
3867;SDS011;1949;48.152;11.528;2022-10-31T02:22:42;8.80;;;3.27;;
3867;SDS011;1949;48.152;11.528;2022-10-31T02:25:33;5.03;;;3.20;;
3867;SDS011;1949;48.152;11.528;2022-10-31T02:28:20;7.10;;;3.27;;
3867;SDS011;1949;48.152;11.528;2022-10-31T02:33:45;8.50;;;4.37;;
3867;SDS011;1949;48.152;11.528;2022-10-31T02:36:37;13.57;;;3.67;;
3867;SDS011;1949;48.152;11.528;2022-10-31T02:39:21;8.90;;;3.60;;
3867;SDS011;1949;48.152;11.528;2022-10-31T02:44:49;9.67;;;3.57;;
3867;SDS011;1949;48.152;11.528;2022-10-31T02:47:26;15.67;;;4.30;;
3867;SDS011;1949;48.152;11.528;2022-10-31T02:52:27;13.60;;;3.33;;
3867;SDS011;1949;48.152;11.528;2022-10-31T02:54:55;12.47;;;3.50;;
3867;SDS011;1949;48.152;11.528;2022-10-31T02:57:28;12.53;;;3.30;;
3867;SDS011;1949;48.152;11.528;2022-10-31T03:00:04;6.70;;;3.60;;
3867;SDS011;1949;48.152;11.528;2022-10-31T03:10:31;10.17;;;3.53;;
3867;SDS011;1949;48.152;11.528;2022-10-31T03:18:46;8.70;;;3.77;;
3867;SDS011;1949;48.152;11.528;2022-10-31T03:23:52;17.50;;;4.10;;
3867;SDS011;1949;48.152;11.528;2022-10-31T03:26:20;6.70;;;3.57;;
3867;SDS011;1949;48.152;11.528;2022-10-31T03:28:56;9.13;;;4.47;;
3867;SDS011;1949;48.152;11.528;2022-10-31T03:31:28;7.03;;;2.90;;
3867;SDS011;1949;48.152;11.528;2022-10-31T03:34:09;12.50;;;5.63;;
3867;SDS011;1949;48.152;11.528;2022-10-31T03:36:37;15.23;;;3.77;;
3867;SDS011;1949;48.152;11.528;2022-10-31T03:39:06;7.70;;;3.10;;
3867;SDS011;1949;48.152;11.528;2022-10-31T03:41:35;12.60;;;4.50;;
3867;SDS011;1949;48.152;11.528;2022-10-31T03:44:11;8.13;;;3.20;;
3867;SDS011;1949;48.152;11.528;2022-10-31T03:46:41;9.63;;;3.37;;
3867;SDS011;1949;48.152;11.528;2022-10-31T03:49:08;12.67;;;4.80;;
3867;SDS011;1949;48.152;11.528;2022-10-31T04:00:02;12.53;;;3.23;;
3867;SDS011;1949;48.152;11.528;2022-10-31T04:02:31;10.43;;;3.70;;
3867;SDS011;1949;48.152;11.528;2022-10-31T04:05:00;12.30;;;3.80;;
3867;SDS011;1949;48.152;11.528;2022-10-31T04:07:28;7.67;;;4.40;;
3867;SDS011;1949;48.152;11.528;2022-10-31T04:09:58;19.10;;;3.43;;
3867;SDS011;1949;48.152;11.528;2022-10-31T04:12:30;11.10;;;3.20;;
3867;SDS011;1949;48.152;11.528;2022-10-31T04:14:58;8.93;;;3.30;;
3867;SDS011;1949;48.152;11.528;2022-10-31T04:17:27;7.97;;;3.00;;
3867;SDS011;1949;48.152;11.528;2022-10-31T04:19:58;12.87;;;4.27;;
3867;SDS011;1949;48.152;11.528;2022-10-31T04:22:25;17.23;;;3.67;;
3867;SDS011;1949;48.152;11.528;2022-10-31T04:24:51;13.27;;;4.30;;
3867;SDS011;1949;48.152;11.528;2022-10-31T04:27:17;10.60;;;3.50;;
3867;SDS011;1949;48.152;11.528;2022-10-31T04:29:43;10.60;;;3.57;;
3867;SDS011;1949;48.152;11.528;2022-10-31T04:32:09;7.27;;;3.37;;
3867;SDS011;1949;48.152;11.528;2022-10-31T04:34:34;13.30;;;3.77;;
3867;SDS011;1949;48.152;11.528;2022-10-31T04:37:00;11.13;;;3.73;;
3867;SDS011;1949;48.152;11.528;2022-10-31T04:39:26;15.70;;;6.20;;
3867;SDS011;1949;48.152;11.528;2022-10-31T04:41:52;5.73;;;3.03;;
3867;SDS011;1949;48.152;11.528;2022-10-31T04:44:18;8.20;;;3.33;;
3867;SDS011;1949;48.152;11.528;2022-10-31T04:46:44;11.00;;;3.67;;
3867;SDS011;1949;48.152;11.528;2022-10-31T04:49:09;9.23;;;3.53;;
3867;SDS011;1949;48.152;11.528;2022-10-31T04:51:35;7.17;;;3.20;;
3867;SDS011;1949;48.152;11.528;2022-10-31T04:54:04;10.30;;;3.40;;
3867;SDS011;1949;48.152;11.528;2022-10-31T04:56:29;11.43;;;3.97;;
3867;SDS011;1949;48.152;11.528;2022-10-31T04:58:55;5.57;;;4.77;;
3867;SDS011;1949;48.152;11.528;2022-10-31T05:01:21;14.33;;;3.97;;
3867;SDS011;1949;48.152;11.528;2022-10-31T05:03:47;21.53;;;4.13;;
3867;SDS011;1949;48.152;11.528;2022-10-31T05:06:12;10.83;;;3.70;;
3867;SDS011;1949;48.152;11.528;2022-10-31T05:08:38;13.83;;;3.63;;
3867;SDS011;1949;48.152;11.528;2022-10-31T05:11:04;14.53;;;4.03;;
3867;SDS011;1949;48.152;11.528;2022-10-31T05:13:30;14.60;;;3.97;;
3867;SDS011;1949;48.152;11.528;2022-10-31T05:15:56;7.17;;;3.90;;
3867;SDS011;1949;48.152;11.528;2022-10-31T05:18:22;12.63;;;4.30;;
3867;SDS011;1949;48.152;11.528;2022-10-31T05:20:48;7.80;;;3.70;;
3867;SDS011;1949;48.152;11.528;2022-10-31T05:23:13;5.87;;;3.47;;
3867;SDS011;1949;48.152;11.528;2022-10-31T05:25:39;7.93;;;3.50;;
3867;SDS011;1949;48.152;11.528;2022-10-31T05:28:06;9.60;;;3.77;;
3867;SDS011;1949;48.152;11.528;2022-10-31T05:30:32;9.40;;;4.20;;
3867;SDS011;1949;48.152;11.528;2022-10-31T05:33:01;9.00;;;3.40;;
3867;SDS011;1949;48.152;11.528;2022-10-31T05:35:27;13.70;;;3.27;;
3867;SDS011;1949;48.152;11.528;2022-10-31T05:37:55;7.90;;;3.47;;
3867;SDS011;1949;48.152;11.528;2022-10-31T05:40:24;14.00;;;4.13;;
3867;SDS011;1949;48.152;11.528;2022-10-31T05:43:06;12.10;;;4.03;;
3867;SDS011;1949;48.152;11.528;2022-10-31T05:45:33;9.80;;;4.20;;
3867;SDS011;1949;48.152;11.528;2022-10-31T05:50:29;9.17;;;3.90;;
3867;SDS011;1949;48.152;11.528;2022-10-31T05:53:07;9.77;;;3.53;;
3867;SDS011;1949;48.152;11.528;2022-10-31T05:55:43;14.47;;;4.70;;
3867;SDS011;1949;48.152;11.528;2022-10-31T05:58:14;16.07;;;5.17;;
3867;SDS011;1949;48.152;11.528;2022-10-31T06:00:40;7.13;;;3.67;;
3867;SDS011;1949;48.152;11.528;2022-10-31T06:03:07;11.00;;;3.40;;
3867;SDS011;1949;48.152;11.528;2022-10-31T06:05:34;8.50;;;3.60;;
3867;SDS011;1949;48.152;11.528;2022-10-31T06:07:59;12.33;;;3.40;;
3867;SDS011;1949;48.152;11.528;2022-10-31T06:10:25;9.27;;;3.60;;
3867;SDS011;1949;48.152;11.528;2022-10-31T06:12:52;11.20;;;4.00;;
3867;SDS011;1949;48.152;11.528;2022-10-31T06:15:18;11.27;;;4.17;;
3867;SDS011;1949;48.152;11.528;2022-10-31T06:17:44;7.57;;;2.97;;
3867;SDS011;1949;48.152;11.528;2022-10-31T06:20:10;11.73;;;3.90;;
3867;SDS011;1949;48.152;11.528;2022-10-31T06:22:36;5.50;;;3.20;;
3867;SDS011;1949;48.152;11.528;2022-10-31T06:25:01;8.10;;;3.00;;
3867;SDS011;1949;48.152;11.528;2022-10-31T06:27:27;8.73;;;3.73;;
3867;SDS011;1949;48.152;11.528;2022-10-31T06:29:53;20.57;;;4.23;;
3867;SDS011;1949;48.152;11.528;2022-10-31T06:32:19;9.33;;;4.27;;
3867;SDS011;1949;48.152;11.528;2022-10-31T06:34:45;14.90;;;4.67;;
3867;SDS011;1949;48.152;11.528;2022-10-31T06:37:13;16.10;;;6.10;;
3867;SDS011;1949;48.152;11.528;2022-10-31T06:39:40;12.90;;;3.90;;
3867;SDS011;1949;48.152;11.528;2022-10-31T06:42:07;11.73;;;4.20;;
3867;SDS011;1949;48.152;11.528;2022-10-31T06:44:33;12.17;;;3.90;;
3867;SDS011;1949;48.152;11.528;2022-10-31T06:47:00;10.60;;;3.73;;
3867;SDS011;1949;48.152;11.528;2022-10-31T06:49:26;11.93;;;4.43;;
3867;SDS011;1949;48.152;11.528;2022-10-31T06:51:51;11.27;;;4.20;;
3867;SDS011;1949;48.152;11.528;2022-10-31T06:54:17;21.97;;;5.30;;
3867;SDS011;1949;48.152;11.528;2022-10-31T06:56:45;12.43;;;4.60;;
3867;SDS011;1949;48.152;11.528;2022-10-31T06:59:12;14.87;;;5.47;;
3867;SDS011;1949;48.152;11.528;2022-10-31T07:01:38;11.23;;;4.90;;
3867;SDS011;1949;48.152;11.528;2022-10-31T07:04:03;12.30;;;3.77;;
3867;SDS011;1949;48.152;11.528;2022-10-31T07:06:29;9.93;;;4.27;;
3867;SDS011;1949;48.152;11.528;2022-10-31T07:08:55;16.13;;;4.10;;
3867;SDS011;1949;48.152;11.528;2022-10-31T07:11:20;9.03;;;4.33;;
3867;SDS011;1949;48.152;11.528;2022-10-31T07:13:48;20.73;;;4.57;;
3867;SDS011;1949;48.152;11.528;2022-10-31T07:16:14;16.10;;;5.80;;
3867;SDS011;1949;48.152;11.528;2022-10-31T07:18:40;13.97;;;6.70;;
3867;SDS011;1949;48.152;11.528;2022-10-31T07:21:05;20.50;;;6.00;;
3867;SDS011;1949;48.152;11.528;2022-10-31T07:23:31;20.53;;;4.90;;
3867;SDS011;1949;48.152;11.528;2022-10-31T07:25:57;13.93;;;5.13;;
3867;SDS011;1949;48.152;11.528;2022-10-31T07:28:24;19.00;;;5.60;;
3867;SDS011;1949;48.152;11.528;2022-10-31T07:30:53;13.60;;;4.33;;
3867;SDS011;1949;48.152;11.528;2022-10-31T07:33:21;12.93;;;3.77;;
3867;SDS011;1949;48.152;11.528;2022-10-31T07:35:47;11.97;;;4.70;;
3867;SDS011;1949;48.152;11.528;2022-10-31T07:38:14;13.77;;;6.33;;
3867;SDS011;1949;48.152;11.528;2022-10-31T07:40:41;12.20;;;4.10;;
3867;SDS011;1949;48.152;11.528;2022-10-31T07:43:10;14.00;;;4.27;;
3867;SDS011;1949;48.152;11.528;2022-10-31T07:45:38;23.60;;;4.80;;
3867;SDS011;1949;48.152;11.528;2022-10-31T07:48:03;26.80;;;4.70;;
3867;SDS011;1949;48.152;11.528;2022-10-31T07:50:30;12.07;;;4.53;;
3867;SDS011;1949;48.152;11.528;2022-10-31T07:53:02;15.87;;;4.93;;
3867;SDS011;1949;48.152;11.528;2022-10-31T07:55:33;16.07;;;5.00;;
3867;SDS011;1949;48.152;11.528;2022-10-31T07:57:59;20.17;;;4.70;;
3867;SDS011;1949;48.152;11.528;2022-10-31T08:00:30;18.47;;;4.30;;
3867;SDS011;1949;48.152;11.528;2022-10-31T08:03:01;13.53;;;4.67;;
3867;SDS011;1949;48.152;11.528;2022-10-31T08:05:32;13.27;;;5.17;;
3867;SDS011;1949;48.152;11.528;2022-10-31T08:07:58;17.87;;;5.33;;
3867;SDS011;1949;48.152;11.528;2022-10-31T08:10:24;24.10;;;8.90;;
3867;SDS011;1949;48.152;11.528;2022-10-31T08:13:01;19.30;;;5.63;;
3867;SDS011;1949;48.152;11.528;2022-10-31T08:15:32;14.93;;;5.90;;
3867;SDS011;1949;48.152;11.528;2022-10-31T08:18:01;15.30;;;6.20;;
3867;SDS011;1949;48.152;11.528;2022-10-31T08:20:28;25.43;;;5.93;;
3867;SDS011;1949;48.152;11.528;2022-10-31T08:25:19;10.23;;;5.27;;
3867;SDS011;1949;48.152;11.528;2022-10-31T08:27:49;24.43;;;6.37;;
3867;SDS011;1949;48.152;11.528;2022-10-31T08:30:15;12.63;;;5.73;;
3867;SDS011;1949;48.152;11.528;2022-10-31T08:32:41;15.90;;;5.37;;
3867;SDS011;1949;48.152;11.528;2022-10-31T08:35:07;14.87;;;6.10;;
3867;SDS011;1949;48.152;11.528;2022-10-31T08:37:33;16.00;;;5.70;;
3867;SDS011;1949;48.152;11.528;2022-10-31T08:39:58;29.83;;;10.67;;
3867;SDS011;1949;48.152;11.528;2022-10-31T08:42:24;38.00;;;11.17;;
3867;SDS011;1949;48.152;11.528;2022-10-31T08:44:50;23.23;;;11.13;;
3867;SDS011;1949;48.152;11.528;2022-10-31T08:47:15;23.67;;;8.10;;
3867;SDS011;1949;48.152;11.528;2022-10-31T08:49:41;17.03;;;6.80;;
3867;SDS011;1949;48.152;11.528;2022-10-31T08:52:07;16.63;;;5.77;;
3867;SDS011;1949;48.152;11.528;2022-10-31T08:54:32;35.37;;;7.87;;
3867;SDS011;1949;48.152;11.528;2022-10-31T08:56:58;21.20;;;8.23;;
3867;SDS011;1949;48.152;11.528;2022-10-31T08:59:24;21.60;;;9.50;;
3867;SDS011;1949;48.152;11.528;2022-10-31T09:01:51;15.67;;;6.50;;
3867;SDS011;1949;48.152;11.528;2022-10-31T09:04:16;20.60;;;7.50;;
3867;SDS011;1949;48.152;11.528;2022-10-31T09:06:42;25.70;;;8.20;;
3867;SDS011;1949;48.152;11.528;2022-10-31T09:09:08;21.20;;;8.20;;
3867;SDS011;1949;48.152;11.528;2022-10-31T09:11:33;22.87;;;8.50;;
3867;SDS011;1949;48.152;11.528;2022-10-31T09:13:59;30.47;;;12.67;;
3867;SDS011;1949;48.152;11.528;2022-10-31T09:16:25;28.77;;;11.63;;
3867;SDS011;1949;48.152;11.528;2022-10-31T09:18:50;14.07;;;7.63;;
3867;SDS011;1949;48.152;11.528;2022-10-31T09:21:16;32.70;;;9.27;;
3867;SDS011;1949;48.152;11.528;2022-10-31T09:23:42;21.80;;;8.60;;
3867;SDS011;1949;48.152;11.528;2022-10-31T09:26:08;18.47;;;8.37;;
3867;SDS011;1949;48.152;11.528;2022-10-31T09:28:33;25.17;;;10.57;;
3867;SDS011;1949;48.152;11.528;2022-10-31T09:30:59;20.10;;;9.03;;
3867;SDS011;1949;48.152;11.528;2022-10-31T09:33:25;17.07;;;8.17;;
3867;SDS011;1949;48.152;11.528;2022-10-31T09:35:51;12.83;;;6.50;;
3867;SDS011;1949;48.152;11.528;2022-10-31T09:38:20;16.33;;;7.67;;
3867;SDS011;1949;48.152;11.528;2022-10-31T09:40:54;15.20;;;8.00;;
3867;SDS011;1949;48.152;11.528;2022-10-31T09:51:34;22.40;;;6.60;;
3867;SDS011;1949;48.152;11.528;2022-10-31T09:54:09;14.53;;;5.80;;
3867;SDS011;1949;48.152;11.528;2022-10-31T09:56:43;11.33;;;5.67;;
3867;SDS011;1949;48.152;11.528;2022-10-31T09:59:18;27.67;;;8.40;;
3867;SDS011;1949;48.152;11.528;2022-10-31T10:09:57;17.10;;;5.00;;
3867;SDS011;1949;48.152;11.528;2022-10-31T10:21:03;20.43;;;5.60;;
3867;SDS011;1949;48.152;11.528;2022-10-31T10:26:15;12.80;;;3.87;;
3867;SDS011;1949;48.152;11.528;2022-10-31T10:28:48;8.67;;;3.67;;
3867;SDS011;1949;48.152;11.528;2022-10-31T10:31:31;14.73;;;5.97;;
3867;SDS011;1949;48.152;11.528;2022-10-31T10:34:13;14.70;;;3.43;;
3867;SDS011;1949;48.152;11.528;2022-10-31T10:36:46;13.10;;;4.37;;
3867;SDS011;1949;48.152;11.528;2022-10-31T10:39:37;6.50;;;3.90;;
3867;SDS011;1949;48.152;11.528;2022-10-31T10:42:13;8.80;;;3.60;;
3867;SDS011;1949;48.152;11.528;2022-10-31T10:45:16;9.30;;;4.63;;
3867;SDS011;1949;48.152;11.528;2022-10-31T10:48:45;13.43;;;3.47;;
3867;SDS011;1949;48.152;11.528;2022-10-31T10:51:04;24.87;;;8.70;;
3867;SDS011;1949;48.152;11.528;2022-10-31T10:56:30;16.77;;;7.33;;
3867;SDS011;1949;48.152;11.528;2022-10-31T10:58:57;15.00;;;5.90;;
3867;SDS011;1949;48.152;11.528;2022-10-31T11:01:23;22.60;;;8.87;;
3867;SDS011;1949;48.152;11.528;2022-10-31T11:03:49;16.17;;;7.53;;
3867;SDS011;1949;48.152;11.528;2022-10-31T11:06:19;58.27;;;20.97;;
3867;SDS011;1949;48.152;11.528;2022-10-31T11:08:51;23.50;;;9.00;;
3867;SDS011;1949;48.152;11.528;2022-10-31T11:13:58;34.00;;;11.13;;
3867;SDS011;1949;48.152;11.528;2022-10-31T11:19:19;44.43;;;16.63;;
3867;SDS011;1949;48.152;11.528;2022-10-31T11:21:47;66.63;;;24.57;;
3867;SDS011;1949;48.152;11.528;2022-10-31T11:26:41;25.43;;;10.00;;
3867;SDS011;1949;48.152;11.528;2022-10-31T11:29:13;72.37;;;23.77;;
3867;SDS011;1949;48.152;11.528;2022-10-31T11:31:41;130.30;;;47.90;;
3867;SDS011;1949;48.152;11.528;2022-10-31T11:36:59;73.17;;;30.13;;
3867;SDS011;1949;48.152;11.528;2022-10-31T11:39:39;104.47;;;46.33;;
3867;SDS011;1949;48.152;11.528;2022-10-31T11:42:07;47.93;;;20.60;;
3867;SDS011;1949;48.152;11.528;2022-10-31T11:44:32;74.27;;;34.63;;
3867;SDS011;1949;48.152;11.528;2022-10-31T11:46:59;110.93;;;48.83;;
3867;SDS011;1949;48.152;11.528;2022-10-31T11:49:31;121.90;;;48.37;;
3867;SDS011;1949;48.152;11.528;2022-10-31T11:57:25;59.20;;;25.60;;
3867;SDS011;1949;48.152;11.528;2022-10-31T11:59:53;80.03;;;32.00;;
3867;SDS011;1949;48.152;11.528;2022-10-31T12:02:21;93.73;;;40.07;;
3867;SDS011;1949;48.152;11.528;2022-10-31T12:05:01;63.00;;;28.10;;
3867;SDS011;1949;48.152;11.528;2022-10-31T12:07:27;38.27;;;13.83;;
3867;SDS011;1949;48.152;11.528;2022-10-31T12:09:53;33.30;;;15.90;;
3867;SDS011;1949;48.152;11.528;2022-10-31T12:17:42;27.57;;;11.80;;
3867;SDS011;1949;48.152;11.528;2022-10-31T12:26:14;17.30;;;6.40;;
3867;SDS011;1949;48.152;11.528;2022-10-31T12:34:46;15.53;;;6.83;;
3867;SDS011;1949;48.152;11.528;2022-10-31T12:37:59;14.87;;;6.93;;
3867;SDS011;1949;48.152;11.528;2022-10-31T12:43:36;20.63;;;7.17;;
3867;SDS011;1949;48.152;11.528;2022-10-31T12:57:47;17.07;;;7.70;;
3867;SDS011;1949;48.152;11.528;2022-10-31T13:00:18;24.03;;;10.73;;
3867;SDS011;1949;48.152;11.528;2022-10-31T13:05:45;10.10;;;4.67;;
3867;SDS011;1949;48.152;11.528;2022-10-31T13:08:18;11.90;;;3.80;;
3867;SDS011;1949;48.152;11.528;2022-10-31T13:11:06;21.63;;;6.30;;
3867;SDS011;1949;48.152;11.528;2022-10-31T13:13:38;13.47;;;5.40;;
3867;SDS011;1949;48.152;11.528;2022-10-31T13:16:13;12.37;;;3.93;;
3867;SDS011;1949;48.152;11.528;2022-10-31T13:18:46;12.57;;;4.87;;
3867;SDS011;1949;48.152;11.528;2022-10-31T13:21:23;16.60;;;6.00;;
3867;SDS011;1949;48.152;11.528;2022-10-31T13:24:16;15.00;;;5.13;;
3867;SDS011;1949;48.152;11.528;2022-10-31T13:31:43;23.20;;;5.97;;
3867;SDS011;1949;48.152;11.528;2022-10-31T13:34:11;12.17;;;5.03;;
3867;SDS011;1949;48.152;11.528;2022-10-31T13:45:14;14.20;;;4.57;;
3867;SDS011;1949;48.152;11.528;2022-10-31T13:47:41;21.13;;;8.13;;
3867;SDS011;1949;48.152;11.528;2022-10-31T13:50:27;20.77;;;7.97;;
3867;SDS011;1949;48.152;11.528;2022-10-31T13:55:40;19.00;;;5.73;;
3867;SDS011;1949;48.152;11.528;2022-10-31T13:58:20;8.10;;;5.07;;
3867;SDS011;1949;48.152;11.528;2022-10-31T14:01:36;17.90;;;6.17;;
3867;SDS011;1949;48.152;11.528;2022-10-31T14:03:47;16.40;;;5.40;;
3867;SDS011;1949;48.152;11.528;2022-10-31T14:06:23;19.27;;;8.07;;
3867;SDS011;1949;48.152;11.528;2022-10-31T14:09:01;21.20;;;5.63;;
3867;SDS011;1949;48.152;11.528;2022-10-31T14:11:27;19.53;;;5.00;;
3867;SDS011;1949;48.152;11.528;2022-10-31T14:13:54;27.80;;;12.10;;
3867;SDS011;1949;48.152;11.528;2022-10-31T14:16:26;18.47;;;7.40;;
3867;SDS011;1949;48.152;11.528;2022-10-31T14:19:02;11.10;;;4.30;;
3867;SDS011;1949;48.152;11.528;2022-10-31T14:21:38;19.23;;;4.30;;
3867;SDS011;1949;48.152;11.528;2022-10-31T14:26:55;16.20;;;4.10;;
3867;SDS011;1949;48.152;11.528;2022-10-31T14:32:17;10.63;;;3.80;;
3867;SDS011;1949;48.152;11.528;2022-10-31T14:50:51;22.73;;;5.87;;
3867;SDS011;1949;48.152;11.528;2022-10-31T14:53:46;8.40;;;5.50;;
3867;SDS011;1949;48.152;11.528;2022-10-31T14:56:29;12.57;;;4.40;;
3867;SDS011;1949;48.152;11.528;2022-10-31T14:59:01;13.87;;;4.30;;
3867;SDS011;1949;48.152;11.528;2022-10-31T15:04:09;8.93;;;4.43;;
3867;SDS011;1949;48.152;11.528;2022-10-31T15:06:46;8.53;;;4.80;;
3867;SDS011;1949;48.152;11.528;2022-10-31T15:09:22;11.77;;;4.50;;
3867;SDS011;1949;48.152;11.528;2022-10-31T15:11:57;14.90;;;5.20;;
3867;SDS011;1949;48.152;11.528;2022-10-31T15:14:46;12.37;;;5.67;;
3867;SDS011;1949;48.152;11.528;2022-10-31T15:17:12;16.97;;;5.57;;
3867;SDS011;1949;48.152;11.528;2022-10-31T15:19:39;9.80;;;5.17;;
3867;SDS011;1949;48.152;11.528;2022-10-31T15:22:05;18.30;;;5.93;;
3867;SDS011;1949;48.152;11.528;2022-10-31T15:24:35;47.63;;;7.17;;
3867;SDS011;1949;48.152;11.528;2022-10-31T15:27:03;17.67;;;7.30;;
3867;SDS011;1949;48.152;11.528;2022-10-31T15:29:29;16.33;;;6.80;;
3867;SDS011;1949;48.152;11.528;2022-10-31T15:31:55;26.03;;;12.27;;
3867;SDS011;1949;48.152;11.528;2022-10-31T15:34:28;23.93;;;8.53;;
3867;SDS011;1949;48.152;11.528;2022-10-31T15:37:03;26.93;;;8.57;;
3867;SDS011;1949;48.152;11.528;2022-10-31T15:39:29;19.40;;;7.50;;
3867;SDS011;1949;48.152;11.528;2022-10-31T15:41:56;31.47;;;6.87;;
3867;SDS011;1949;48.152;11.528;2022-10-31T15:44:36;11.77;;;6.30;;
3867;SDS011;1949;48.152;11.528;2022-10-31T15:47:12;16.50;;;7.07;;
3867;SDS011;1949;48.152;11.528;2022-10-31T15:49:53;47.80;;;18.63;;
3867;SDS011;1949;48.152;11.528;2022-10-31T15:55:00;45.00;;;21.13;;
3867;SDS011;1949;48.152;11.528;2022-10-31T15:57:50;56.87;;;17.40;;
3867;SDS011;1949;48.152;11.528;2022-10-31T16:00:25;60.73;;;26.70;;
3867;SDS011;1949;48.152;11.528;2022-10-31T16:05:43;31.20;;;12.00;;
3867;SDS011;1949;48.152;11.528;2022-10-31T16:10:56;42.07;;;19.10;;
3867;SDS011;1949;48.152;11.528;2022-10-31T16:13:32;38.57;;;17.50;;
3867;SDS011;1949;48.152;11.528;2022-10-31T16:16:02;39.23;;;13.57;;
3867;SDS011;1949;48.152;11.528;2022-10-31T16:18:36;23.20;;;11.30;;
3867;SDS011;1949;48.152;11.528;2022-10-31T16:21:03;31.20;;;13.17;;
3867;SDS011;1949;48.152;11.528;2022-10-31T16:23:30;58.97;;;27.47;;
3867;SDS011;1949;48.152;11.528;2022-10-31T16:25:55;35.27;;;16.33;;
3867;SDS011;1949;48.152;11.528;2022-10-31T16:28:23;29.13;;;11.87;;
3867;SDS011;1949;48.152;11.528;2022-10-31T16:30:51;19.97;;;9.50;;
3867;SDS011;1949;48.152;11.528;2022-10-31T16:36:41;20.90;;;8.77;;
3867;SDS011;1949;48.152;11.528;2022-10-31T16:38:59;33.77;;;11.57;;
3867;SDS011;1949;48.152;11.528;2022-10-31T16:41:25;32.47;;;11.47;;
3867;SDS011;1949;48.152;11.528;2022-10-31T16:43:52;21.70;;;10.67;;
3867;SDS011;1949;48.152;11.528;2022-10-31T16:46:22;26.50;;;11.70;;
3867;SDS011;1949;48.152;11.528;2022-10-31T16:48:49;27.40;;;11.20;;
3867;SDS011;1949;48.152;11.528;2022-10-31T16:51:15;25.40;;;11.20;;
3867;SDS011;1949;48.152;11.528;2022-10-31T16:53:41;25.13;;;9.37;;
3867;SDS011;1949;48.152;11.528;2022-10-31T16:56:21;20.50;;;7.80;;
3867;SDS011;1949;48.152;11.528;2022-10-31T16:58:52;20.20;;;8.30;;
3867;SDS011;1949;48.152;11.528;2022-10-31T17:01:18;14.50;;;6.93;;
3867;SDS011;1949;48.152;11.528;2022-10-31T17:03:44;11.10;;;6.67;;
3867;SDS011;1949;48.152;11.528;2022-10-31T17:06:12;16.60;;;7.40;;
3867;SDS011;1949;48.152;11.528;2022-10-31T17:08:38;21.77;;;9.03;;
3867;SDS011;1949;48.152;11.528;2022-10-31T17:11:04;19.20;;;8.10;;
3867;SDS011;1949;48.152;11.528;2022-10-31T17:13:32;20.13;;;7.03;;
3867;SDS011;1949;48.152;11.528;2022-10-31T17:16:00;26.40;;;7.93;;
3867;SDS011;1949;48.152;11.528;2022-10-31T17:18:27;17.53;;;6.57;;
3867;SDS011;1949;48.152;11.528;2022-10-31T17:21:00;18.43;;;7.23;;
3867;SDS011;1949;48.152;11.528;2022-10-31T17:23:28;31.70;;;9.67;;
3867;SDS011;1949;48.152;11.528;2022-10-31T17:25:55;35.13;;;15.23;;
3867;SDS011;1949;48.152;11.528;2022-10-31T17:28:21;31.90;;;15.03;;
3867;SDS011;1949;48.152;11.528;2022-10-31T17:30:47;24.77;;;8.50;;
3867;SDS011;1949;48.152;11.528;2022-10-31T17:33:14;29.13;;;11.30;;
3867;SDS011;1949;48.152;11.528;2022-10-31T17:35:45;20.07;;;8.33;;
3867;SDS011;1949;48.152;11.528;2022-10-31T17:38:11;21.40;;;9.27;;
3867;SDS011;1949;48.152;11.528;2022-10-31T17:40:37;23.40;;;8.57;;
3867;SDS011;1949;48.152;11.528;2022-10-31T17:43:07;21.33;;;7.60;;
3867;SDS011;1949;48.152;11.528;2022-10-31T17:45:33;25.40;;;7.33;;
3867;SDS011;1949;48.152;11.528;2022-10-31T17:47:59;21.90;;;8.13;;
3867;SDS011;1949;48.152;11.528;2022-10-31T17:50:25;16.50;;;7.10;;
3867;SDS011;1949;48.152;11.528;2022-10-31T17:52:51;19.73;;;7.07;;
3867;SDS011;1949;48.152;11.528;2022-10-31T17:55:18;26.03;;;8.63;;
3867;SDS011;1949;48.152;11.528;2022-10-31T17:57:44;23.57;;;8.70;;
3867;SDS011;1949;48.152;11.528;2022-10-31T18:00:11;18.87;;;7.77;;
3867;SDS011;1949;48.152;11.528;2022-10-31T18:02:39;26.00;;;6.90;;
3867;SDS011;1949;48.152;11.528;2022-10-31T18:05:05;15.63;;;7.17;;